Time;durP1;ratioP1;P1;durP2;ratioP2;P2;SDS_P1;SDS_P2;PMS_P1;PMS_P2;Temp;Humidity;BMP_temperature;BMP_pressure;BME280_temperature;BME280_humidity;BME280_pressure;Samples;Min_cycle;Max_cycle;Signal;HPM_P1;HPM_P2
2022/09/17 00:01:04;;;;;;;13.90;3.53;;;;;;;9.71;100.00;101188.88;5050333;28;20041;-90
2022/09/17 00:03:30;;;;;;;13.07;3.10;;;;;;;9.78;100.00;101194.34;5050956;28;20043;-89
2022/09/17 00:06:00;;;;;;;14.57;3.27;;;;;;;9.78;100.00;101200.59;5049558;28;20040;-87
2022/09/17 00:08:26;;;;;;;15.53;3.27;;;;;;;9.81;100.00;101199.34;5050577;28;20045;-89
2022/09/17 00:10:51;;;;;;;14.17;3.23;;;;;;;9.66;100.00;101177.00;5049824;28;20040;-90
2022/09/17 00:13:17;;;;;;;15.33;3.37;;;;;;;9.84;100.00;101198.94;5052995;28;20167;-89
2022/09/17 00:15:45;;;;;;;15.27;3.10;;;;;;;9.89;100.00;101210.03;5047472;28;20479;-87
2022/09/17 00:18:11;;;;;;;13.47;2.93;;;;;;;9.84;100.00;101198.13;5050528;28;20044;-88
2022/09/17 00:20:43;;;;;;;15.70;3.07;;;;;;;9.91;100.00;101213.38;5049392;28;20481;-89
2022/09/17 00:23:09;;;;;;;15.03;3.43;;;;;;;9.95;100.00;101216.50;5050013;28;20032;-89
2022/09/17 00:25:39;;;;;;;16.10;3.53;;;;;;;9.95;100.00;101216.50;5049402;28;20099;-88
2022/09/17 00:28:04;;;;;;;15.10;3.10;;;;;;;9.99;100.00;101214.25;5049618;28;20488;-89
2022/09/17 00:30:29;;;;;;;13.77;2.50;;;;;;;9.95;100.00;101205.69;5065945;28;20031;-88
2022/09/17 00:32:56;;;;;;;15.00;3.47;;;;;;;9.97;100.00;101207.16;5037676;28;20051;-90
2022/09/17 00:35:22;;;;;;;14.93;2.83;;;;;;;9.98;100.00;101213.41;5048730;28;20299;-89
2022/09/17 00:37:48;;;;;;;13.17;2.60;;;;;;;10.03;100.00;101220.94;5048903;28;20053;-89
2022/09/17 00:40:13;;;;;;;14.77;3.37;;;;;;;10.04;100.00;101228.03;5041573;28;20190;-90
2022/09/17 00:42:38;;;;;;;14.37;2.90;;;;;;;10.05;100.00;101226.97;5049330;28;20044;-89
2022/09/17 00:45:04;;;;;;;16.03;3.20;;;;;;;10.07;100.00;101220.31;5041795;28;20072;-90
2022/09/17 00:47:44;;;;;;;12.27;3.10;;;;;;;10.07;100.00;101214.09;5049759;28;20155;-88
2022/09/17 00:50:18;;;;;;;15.10;3.07;;;;;;;10.07;100.00;101219.50;5049239;28;20120;-88
2022/09/17 00:53:00;;;;;;;13.70;2.85;;;;;;;10.12;100.00;101228.69;5048817;28;20460;-89
2022/09/17 00:55:31;;;;;;;14.67;2.73;;;;;;;10.14;100.00;101233.91;5049726;28;20174;-89
2022/09/17 00:58:00;;;;;;;13.60;2.70;;;;;;;10.06;100.00;101221.38;5049030;28;20499;-89
2022/09/17 01:00:26;;;;;;;16.37;3.00;;;;;;;10.08;100.00;101223.88;5048905;28;20058;-88
2022/09/17 01:02:53;;;;;;;12.10;2.97;;;;;;;10.08;100.00;101218.47;5049314;28;20036;-87
2022/09/17 01:05:30;;;;;;;11.23;2.40;;;;;;;10.08;100.00;101213.88;5048852;28;20039;-88
2022/09/17 01:08:37;;;;;;;12.57;2.50;;;;;;;10.16;100.00;101228.28;5049063;28;20126;-87
2022/09/17 01:11:24;;;;;;;10.30;2.60;;;;;;;10.15;100.00;101232.88;5026437;28;20486;-89
2022/09/17 01:14:21;;;;;;;18.33;3.33;;;;;;;10.17;100.00;101240.81;5048572;28;20445;-88
2022/09/17 01:17:02;;;;;;;13.53;2.30;;;;;;;10.15;100.00;101241.00;5048133;28;20413;-87
2022/09/17 01:19:40;;;;;;;12.07;2.53;;;;;;;10.01;100.00;101217.56;5048980;28;20032;-89
2022/09/17 01:22:25;;;;;;;13.23;2.53;;;;;;;10.06;100.00;101244.91;5049156;28;20032;-89
2022/09/17 01:25:08;;;;;;;12.18;2.90;;;;;;;10.11;100.00;101247.84;5048272;28;20040;-87
2022/09/17 01:27:43;;;;;;;11.27;2.60;;;;;;;10.08;100.00;101259.09;5048695;28;20040;-88
2022/09/17 01:30:27;;;;;;;17.00;2.70;;;;;;;10.03;100.00;101242.59;5031885;28;20287;-87
2022/09/17 01:33:16;;;;;;;14.55;2.83;;;;;;;10.04;100.00;101245.09;5048429;28;20411;-89
2022/09/17 01:36:20;;;;;;;9.30;2.23;;;;;;;10.03;100.00;101248.84;5048345;28;20563;-88
2022/09/17 01:38:57;;;;;;;10.73;2.83;;;;;;;10.08;100.00;101250.97;5048030;28;22157;-89
2022/09/17 01:41:29;;;;;;;16.60;3.07;;;;;;;10.02;100.00;101247.16;5047721;28;20035;-86
2022/09/17 01:44:01;;;;;;;10.43;2.60;;;;;;;10.06;100.00;101255.72;5048198;28;20033;-89
2022/09/17 01:46:35;;;;;;;13.50;2.67;;;;;;;10.03;100.00;101256.13;5048143;28;20075;-89
2022/09/17 01:49:04;;;;;;;14.65;3.38;;;;;;;10.04;100.00;101257.81;5048793;28;20190;-87
2022/09/17 01:51:36;;;;;;;14.20;2.60;;;;;;;10.04;100.00;101268.63;5047783;28;20166;-88
2022/09/17 01:54:15;;;;;;;10.93;2.57;;;;;;;10.02;100.00;101265.28;5033102;28;20534;-90
2022/09/17 01:57:03;;;;;;;11.87;2.70;;;;;;;9.96;100.00;101258.78;5047332;28;20468;-89
2022/09/17 01:59:37;;;;;;;13.13;2.50;;;;;;;9.93;100.00;101257.31;5049367;28;20044;-89
2022/09/17 02:02:26;;;;;;;13.77;2.45;;;;;;;9.91;100.00;101251.28;5048119;28;20036;-87
2022/09/17 02:05:00;;;;;;;10.03;2.50;;;;;;;9.91;100.00;101248.56;5047655;28;20552;-88
2022/09/17 02:07:27;;;;;;;9.57;2.60;;;;;;;9.92;100.00;101261.03;5047340;28;20089;-88
2022/09/17 02:10:16;;;;;;;14.30;2.50;;;;;;;9.94;100.00;101264.41;5047090;28;20469;-89
2022/09/17 02:13:12;;;;;;;13.27;2.73;;;;;;;10.00;100.00;101262.78;5047598;28;20036;-89
2022/09/17 02:15:43;;;;;;;12.43;2.53;;;;;;;9.95;100.00;101262.53;5046297;28;20485;-88
2022/09/17 02:18:14;;;;;;;12.47;2.87;;;;;;;9.95;100.00;101271.50;5047586;28;20032;-86
2022/09/17 02:20:44;;;;;;;10.70;2.47;;;;;;;9.95;100.00;101270.66;5028645;28;20063;-88
2022/09/17 02:23:19;;;;;;;11.23;2.43;;;;;;;9.97;100.00;101268.59;5047817;28;20385;-87
2022/09/17 02:25:55;;;;;;;7.07;2.40;;;;;;;9.92;100.00;101249.41;5046876;28;20481;-88
2022/09/17 02:28:35;;;;;;;13.93;2.60;;;;;;;9.96;100.00;101256.91;5046752;28;20036;-88
2022/09/17 02:31:00;;;;;;;14.93;2.70;;;;;;;9.99;100.00;101261.09;5047988;28;20056;-88
2022/09/17 02:33:27;;;;;;;11.60;2.70;;;;;;;9.93;100.00;101259.19;5046970;28;20120;-88
2022/09/17 02:35:53;;;;;;;13.40;3.13;;;;;;;9.94;100.00;101261.69;5046548;28;20040;-89
2022/09/17 02:38:25;;;;;;;14.53;2.90;;;;;;;9.96;100.00;101266.91;5047311;28;20497;-89
2022/09/17 02:41:00;;;;;;;10.80;2.33;;;;;;;9.96;100.00;101275.84;5047559;28;20492;-90
2022/09/17 02:43:33;;;;;;;13.07;2.50;;;;;;;9.95;100.00;101274.22;5047238;28;20434;-91
2022/09/17 02:46:14;;;;;;;11.33;2.30;;;;;;;9.97;100.00;101279.41;5049475;28;20481;-90
2022/09/17 02:48:55;;;;;;;12.60;2.50;;;;;;;9.90;100.00;101270.41;5046686;28;20761;-90
2022/09/17 02:51:40;;;;;;;12.30;2.70;;;;;;;9.91;100.00;101281.06;5047822;28;20445;-90
2022/09/17 02:54:17;;;;;;;10.30;2.13;;;;;;;9.93;100.00;101278.97;5047528;28;20033;-89
2022/09/17 02:56:47;;;;;;;9.00;2.17;;;;;;;9.94;100.00;101279.78;5046885;28;20040;-90
2022/09/17 02:59:28;;;;;;;13.60;2.43;;;;;;;9.93;100.00;101276.25;5047326;28;20565;-91
2022/09/17 03:02:21;;;;;;;11.17;2.60;;;;;;;9.96;100.00;101265.03;5046570;28;20460;-90
2022/09/17 03:04:50;;;;;;;11.20;2.40;;;;;;;9.99;100.00;101271.94;5046491;28;20044;-88
2022/09/17 03:07:17;;;;;;;12.17;2.77;;;;;;;9.95;100.00;101259.81;5048028;28;20380;-89
2022/09/17 03:09:43;;;;;;;15.23;3.00;;;;;;;10.07;100.00;101269.06;5047594;28;20025;-88
2022/09/17 03:12:10;;;;;;;9.67;2.37;;;;;;;10.09;100.00;101274.28;5046436;28;20045;-87
2022/09/17 03:14:35;;;;;;;11.10;2.40;;;;;;;10.03;100.00;101264.25;5047452;28;20380;-88
2022/09/17 03:17:02;;;;;;;10.67;2.40;;;;;;;10.05;100.00;101273.84;5046107;28;20047;-89
2022/09/17 03:19:27;;;;;;;12.57;2.87;;;;;;;10.05;100.00;101275.72;5047891;28;20842;-88
2022/09/17 03:21:53;;;;;;;12.30;2.27;;;;;;;10.04;100.00;101290.31;5046017;28;20044;-89
2022/09/17 03:24:18;;;;;;;11.80;2.33;;;;;;;10.02;100.00;101278.81;5047534;28;20134;-88
2022/09/17 03:26:46;;;;;;;10.23;2.10;;;;;;;10.03;100.00;101272.38;5045343;28;20556;-90
2022/09/17 03:29:11;;;;;;;13.03;2.30;;;;;;;10.02;100.00;101286.94;5047345;28;20431;-88
2022/09/17 03:31:37;;;;;;;10.57;2.30;;;;;;;10.01;100.00;101282.56;5046982;28;20032;-89
2022/09/17 03:34:02;;;;;;;12.73;2.57;;;;;;;10.01;100.00;101280.69;5046820;28;20048;-90
2022/09/17 03:36:27;;;;;;;12.00;2.83;;;;;;;9.99;100.00;101269.22;5035031;28;20052;-89
2022/09/17 03:38:57;;;;;;;12.80;2.63;;;;;;;9.93;100.00;101265.44;5045039;28;20071;-88
2022/09/17 03:41:23;;;;;;;11.43;2.23;;;;;;;9.93;100.00;101260.03;5046585;28;21474;-89
2022/09/17 03:43:49;;;;;;;9.37;1.90;;;;;;;9.93;100.00;101253.78;5047172;28;20041;-90
2022/09/17 03:46:14;;;;;;;10.80;2.23;;;;;;;9.89;100.00;101250.63;5046601;28;20049;-89
2022/09/17 03:48:39;;;;;;;9.63;2.73;;;;;;;9.86;100.00;101244.75;5047053;28;20377;-89
2022/09/17 03:51:05;;;;;;;8.67;1.90;;;;;;;9.90;100.00;101263.13;5047543;28;20098;-89
2022/09/17 03:53:32;;;;;;;12.20;2.40;;;;;;;9.86;100.00;101264.56;5049660;28;20037;-89
2022/09/17 03:55:59;;;;;;;12.67;2.57;;;;;;;9.87;100.00;101278.91;5049965;28;21395;-90
2022/09/17 03:58:24;;;;;;;10.27;2.20;;;;;;;9.85;100.00;101292.66;5050812;28;20404;-89
2022/09/17 04:00:52;;;;;;;12.90;2.60;;;;;;;9.86;100.00;101296.19;5050874;28;20047;-89
2022/09/17 04:03:18;;;;;;;13.20;2.63;;;;;;;9.83;100.00;101302.00;5050175;28;20214;-89
2022/09/17 04:05:43;;;;;;;14.43;2.77;;;;;;;9.63;100.00;101273.75;5050536;28;21394;-89
2022/09/17 04:08:08;;;;;;;10.43;2.60;;;;;;;9.76;100.00;101304.66;5031771;28;20044;-89
2022/09/17 04:10:34;;;;;;;14.13;2.90;;;;;;;9.76;100.00;101301.94;5032823;28;20104;-89
2022/09/17 04:12:59;;;;;;;13.57;2.50;;;;;;;9.75;100.00;101297.53;5048836;28;20036;-89
2022/09/17 04:15:24;;;;;;;13.40;2.27;;;;;;;9.71;100.00;101290.84;5049045;28;20060;-89
2022/09/17 04:17:50;;;;;;;8.90;2.30;;;;;;;9.70;100.00;101294.63;5048961;28;20410;-90
2022/09/17 04:20:15;;;;;;;11.00;2.53;;;;;;;9.71;100.00;101297.13;5050243;28;20187;-90
2022/09/17 04:22:40;;;;;;;10.37;2.60;;;;;;;9.67;100.00;101293.13;5048551;28;20175;-89
2022/09/17 04:25:06;;;;;;;14.83;2.90;;;;;;;9.69;100.00;101301.88;5050232;28;20131;-89
2022/09/17 04:27:31;;;;;;;11.57;2.60;;;;;;;9.66;100.00;101296.88;5049766;28;20039;-90
2022/09/17 04:29:57;;;;;;;14.73;2.67;;;;;;;9.67;100.00;101294.97;5049904;28;20083;-89
2022/09/17 04:32:22;;;;;;;10.60;2.20;;;;;;;9.66;100.00;101296.03;5049399;28;20097;-90
2022/09/17 04:34:48;;;;;;;13.87;3.10;;;;;;;9.63;100.00;101299.97;5049264;28;20191;-89
2022/09/17 04:37:13;;;;;;;11.00;2.50;;;;;;;9.61;100.00;101296.59;5049262;28;20052;-90
2022/09/17 04:39:38;;;;;;;10.83;2.50;;;;;;;9.61;100.00;101300.16;5048435;28;20037;-90
2022/09/17 04:42:04;;;;;;;11.10;2.43;;;;;;;9.59;100.00;101295.97;5049681;28;20112;-90
2022/09/17 04:44:29;;;;;;;14.40;2.80;;;;;;;9.57;100.00;101298.88;5042500;28;20033;-88
2022/09/17 04:46:55;;;;;;;9.97;2.53;;;;;;;9.59;100.00;101294.09;5049044;28;20072;-90
2022/09/17 04:49:20;;;;;;;14.10;2.40;;;;;;;9.43;100.00;101278.13;5049227;28;20439;-90
2022/09/17 04:51:45;;;;;;;13.93;2.53;;;;;;;9.52;100.00;101298.63;5048926;28;20039;-89
2022/09/17 04:54:11;;;;;;;14.00;2.57;;;;;;;9.52;100.00;101303.16;5048763;28;20137;-90
2022/09/17 04:56:36;;;;;;;11.53;2.60;;;;;;;9.46;100.00;101289.41;5048448;28;20040;-88
2022/09/17 04:59:01;;;;;;;12.00;2.30;;;;;;;9.39;100.00;101299.31;5049266;28;20060;-90
2022/09/17 05:01:27;;;;;;;12.47;2.43;;;;;;;9.34;100.00;101290.09;5032115;28;20551;-90
2022/09/17 05:03:52;;;;;;;11.87;2.83;;;;;;;9.26;100.00;101302.72;5049477;28;20171;-90
2022/09/17 05:06:17;;;;;;;10.87;2.30;;;;;;;9.27;100.00;101299.00;5050255;28;20024;-90
2022/09/17 05:08:43;;;;;;;12.30;2.57;;;;;;;9.24;100.00;101307.47;5049018;28;20534;-89
2022/09/17 05:11:08;;;;;;;11.67;2.40;;;;;;;9.21;100.00;101304.34;5048173;28;20029;-91
2022/09/17 05:13:33;;;;;;;13.50;3.23;;;;;;;9.21;100.00;101305.16;5049141;28;20128;-88
2022/09/17 05:15:59;;;;;;;14.77;2.90;;;;;;;9.17;100.00;101305.75;5048310;28;20516;-89
2022/09/17 05:18:25;;;;;;;9.90;2.27;;;;;;;9.18;100.00;101310.09;5048185;28;20037;-89
2022/09/17 05:20:50;;;;;;;11.07;2.60;;;;;;;9.17;100.00;101317.38;5047874;28;20042;-91
2022/09/17 05:23:16;;;;;;;11.60;2.50;;;;;;;9.15;100.00;101318.59;5048744;28;20036;-89
2022/09/17 05:25:41;;;;;;;14.50;2.67;;;;;;;9.13;100.00;101311.50;5048879;28;20033;-88
2022/09/17 05:28:07;;;;;;;11.20;2.37;;;;;;;9.17;100.00;101321.97;5048714;28;20051;-88
2022/09/17 05:30:32;;;;;;;11.30;2.43;;;;;;;9.16;100.00;101321.13;5031069;28;20171;-89
2022/09/17 05:33:03;;;;;;;15.87;2.60;;;;;;;9.18;100.00;101329.88;5047492;28;20041;-89
2022/09/17 05:35:29;;;;;;;14.17;2.93;;;;;;;9.18;100.00;101329.88;5029388;28;20128;-90
2022/09/17 05:37:59;;;;;;;13.73;2.93;;;;;;;9.13;100.00;101324.22;5048102;28;20043;-89
2022/09/17 05:40:25;;;;;;;12.40;3.00;;;;;;;9.14;100.00;101334.00;5051962;28;20037;-88
2022/09/17 05:42:50;;;;;;;9.47;2.30;;;;;;;9.14;100.00;101325.91;5047963;28;20067;-90
2022/09/17 05:45:16;;;;;;;13.73;2.60;;;;;;;9.14;100.00;101334.00;5047712;28;20041;-91
2022/09/17 05:47:41;;;;;;;10.90;2.37;;;;;;;9.15;100.00;101341.06;5046069;28;20037;-90
2022/09/17 05:50:07;;;;;;;11.47;2.70;;;;;;;9.14;100.00;101334.00;5048308;28;20044;-90
2022/09/17 05:52:32;;;;;;;12.93;2.43;;;;;;;9.16;100.00;101326.53;5049042;28;20552;-88
2022/09/17 05:54:57;;;;;;;10.20;2.60;;;;;;;9.19;100.00;101328.00;5030460;28;20070;-87
2022/09/17 05:57:23;;;;;;;11.33;2.50;;;;;;;9.24;100.00;101334.50;5047900;28;20465;-91
2022/09/17 05:59:49;;;;;;;12.13;2.70;;;;;;;9.31;100.00;101342.72;5047995;28;20453;-91
2022/09/17 06:02:14;;;;;;;12.03;2.43;;;;;;;9.35;100.00;101344.00;5047689;28;20047;-90
2022/09/17 06:04:39;;;;;;;14.07;2.60;;;;;;;9.40;100.00;101355.09;5047844;28;20452;-89
2022/09/17 06:07:08;;;;;;;11.70;2.50;;;;;;;9.40;100.00;101341.56;5047456;28;20037;-90
2022/09/17 06:09:36;;;;;;;10.27;2.37;;;;;;;9.49;100.00;101350.38;5047847;28;20448;-89
2022/09/17 06:12:02;;;;;;;9.27;2.30;;;;;;;9.56;100.00;101367.53;5048155;28;20721;-90
2022/09/17 06:14:28;;;;;;;13.67;3.20;;;;;;;9.59;100.00;101366.31;5046882;28;20083;-90
2022/09/17 06:16:54;;;;;;;13.23;2.77;;;;;;;9.62;100.00;101355.09;5046249;28;20135;-90
2022/09/17 06:19:20;;;;;;;12.73;2.37;;;;;;;9.52;100.00;101341.03;5048319;28;20025;-91
2022/09/17 06:21:46;;;;;;;10.27;2.80;;;;;;;9.61;100.00;101356.97;5053063;28;20459;-90
2022/09/17 06:24:11;;;;;;;16.17;3.20;;;;;;;9.70;100.00;101362.25;5055460;28;20020;-89
2022/09/17 06:26:36;;;;;;;11.03;2.43;;;;;;;9.71;99.80;101363.91;5059306;28;20626;-90
2022/09/17 06:29:02;;;;;;;9.53;2.13;;;;;;;9.74;99.45;101363.56;5066440;28;20032;-91
2022/09/17 06:31:27;;;;;;;7.57;2.00;;;;;;;9.77;98.79;101363.16;5057200;28;20067;-88
2022/09/17 06:33:55;;;;;;;10.90;2.10;;;;;;;9.81;98.00;101350.91;5061559;28;20036;-88
2022/09/17 06:36:20;;;;;;;10.97;2.43;;;;;;;9.82;96.74;101338.19;5051807;28;20373;-88
2022/09/17 06:38:45;;;;;;;8.13;2.03;;;;;;;9.91;96.38;101355.97;5051192;28;20232;-89
2022/09/17 06:41:13;;;;;;;7.93;2.07;;;;;;;9.94;94.00;101351.03;5051226;28;20032;-88
2022/09/17 06:43:38;;;;;;;8.30;1.83;;;;;;;10.04;93.39;101349.88;5050513;28;20037;-87
2022/09/17 06:46:04;;;;;;;9.23;1.87;;;;;;;9.96;92.36;101343.53;5051451;28;20052;-87
2022/09/17 06:48:33;;;;;;;5.17;1.73;;;;;;;10.12;93.35;101365.97;5050853;28;20039;-88
2022/09/17 06:51:05;;;;;;;8.17;1.87;;;;;;;10.18;92.17;101364.34;5051248;28;20040;-90
2022/09/17 06:53:30;;;;;;;7.60;1.97;;;;;;;10.22;92.62;101352.91;5051245;28;20123;-90
2022/09/17 06:55:57;;;;;;;7.40;1.80;;;;;;;10.31;92.43;101357.13;5052652;28;20028;-88
2022/09/17 06:58:23;;;;;;;6.00;2.03;;;;;;;10.40;90.25;101359.72;5034432;28;20131;-89
2022/09/17 07:00:48;;;;;;;5.97;1.47;;;;;;;10.45;91.03;101373.53;5056969;28;20119;-88
2022/09/17 07:03:14;;;;;;;5.27;1.50;;;;;;;10.50;91.84;101370.19;5033940;28;20029;-86
2022/09/17 07:05:42;;;;;;;7.27;1.70;;;;;;;10.57;91.08;101369.22;5056681;28;20029;-88
2022/09/17 07:08:09;;;;;;;4.43;1.30;;;;;;;10.60;89.23;101371.53;5049626;28;20072;-88
2022/09/17 07:10:36;;;;;;;6.30;1.57;;;;;;;10.71;89.96;101374.72;5047349;28;20094;-89
2022/09/17 07:13:02;;;;;;;5.00;1.40;;;;;;;10.65;89.91;101368.25;5047294;28;20041;-87
2022/09/17 07:15:28;;;;;;;4.67;1.60;;;;;;;10.79;90.16;101379.97;5047195;28;20053;-89
2022/09/17 07:17:53;;;;;;;5.93;1.60;;;;;;;10.81;90.97;101372.47;5062019;28;20066;-88
2022/09/17 07:20:19;;;;;;;6.60;1.90;;;;;;;10.91;91.11;101378.38;5047816;28;20067;-90
2022/09/17 07:22:44;;;;;;;4.27;1.20;;;;;;;10.97;90.66;101379.44;5035153;28;20040;-89
2022/09/17 07:25:10;;;;;;;4.50;1.30;;;;;;;11.00;89.57;101383.63;5063660;28;20086;-89
2022/09/17 07:27:36;;;;;;;7.50;1.53;;;;;;;11.04;88.84;101374.88;5049284;28;20124;-87
2022/09/17 07:30:01;;;;;;;7.63;1.40;;;;;;;11.17;89.17;101389.56;5050664;28;20036;-88
2022/09/17 07:32:30;;;;;;;7.27;1.60;;;;;;;11.33;90.37;101375.63;5050157;28;20239;-88
2022/09/17 07:34:55;;;;;;;6.93;1.60;;;;;;;11.36;88.01;101377.09;5050686;28;20033;-88
2022/09/17 07:37:21;;;;;;;7.33;1.50;;;;;;;11.45;85.60;101384.00;5050247;28;20041;-88
2022/09/17 07:39:46;;;;;;;5.03;1.30;;;;;;;11.47;86.06;101390.91;5050374;28;20037;-90
2022/09/17 07:42:12;;;;;;;5.73;1.47;;;;;;;11.62;86.56;101387.19;5050127;28;20492;-90
2022/09/17 07:44:37;;;;;;;6.33;1.50;;;;;;;11.63;85.88;101380.72;5030994;28;20551;-87
2022/09/17 07:47:03;;;;;;;8.50;1.67;;;;;;;11.64;85.51;101382.38;5051045;28;20067;-90
2022/09/17 07:49:30;;;;;;;5.30;1.40;;;;;;;11.74;85.78;101376.56;5050461;28;20024;-89
2022/09/17 07:51:55;;;;;;;7.00;1.60;;;;;;;11.73;86.58;101370.28;5032909;28;20696;-89
2022/09/17 07:54:21;;;;;;;5.33;1.40;;;;;;;11.78;85.56;101388.69;5048544;28;20072;-90
2022/09/17 07:56:47;;;;;;;5.60;1.23;;;;;;;11.68;85.61;101366.53;5050157;28;20052;-88
2022/09/17 07:59:12;;;;;;;4.53;1.40;;;;;;;11.69;85.03;101379.06;5050366;28;20032;-88
2022/09/17 08:01:37;;;;;;;8.90;1.67;;;;;;;11.72;85.67;101378.63;5050251;28;20036;-90
2022/09/17 08:04:04;;;;;;;7.63;1.80;;;;;;;11.72;84.17;101373.19;5050632;28;20032;-89
2022/09/17 08:06:29;;;;;;;6.50;1.43;;;;;;;11.86;85.09;101379.47;5050643;28;20481;-87
2022/09/17 08:08:56;;;;;;;7.43;1.50;;;;;;;11.83;85.73;101397.03;5058985;28;20054;-87
2022/09/17 08:11:26;;;;;;;6.43;1.40;;;;;;;11.80;85.86;101402.88;5062243;28;20056;-87
2022/09/17 08:13:53;;;;;;;7.00;1.37;;;;;;;11.78;88.42;101389.50;5061845;28;23928;-86
2022/09/17 08:16:20;;;;;;;5.13;1.40;;;;;;;11.78;90.60;101392.22;5065028;28;20028;-88
2022/09/17 08:18:46;;;;;;;7.33;1.57;;;;;;;11.73;88.01;101404.75;5065885;28;20476;-87
2022/09/17 08:21:17;;;;;;;6.47;1.40;;;;;;;11.75;87.52;101399.94;5067301;28;20380;-87
2022/09/17 08:23:43;;;;;;;9.03;1.73;;;;;;;11.93;87.52;101392.03;5066952;28;20494;-85
2022/09/17 08:26:14;;;;;;;8.70;1.67;;;;;;;12.15;86.62;101391.88;5040988;28;20063;-86
2022/09/17 08:28:44;;;;;;;5.43;1.23;;;;;;;12.45;86.99;101383.28;5064521;28;20024;-86
2022/09/17 08:31:10;;;;;;;9.07;1.60;;;;;;;12.70;86.11;101379.88;5038813;28;20032;-85
2022/09/17 08:33:38;;;;;;;10.50;2.03;;;;;;;12.90;83.85;101386.09;5075155;28;20028;-84
2022/09/17 08:36:05;;;;;;;6.97;1.50;;;;;;;13.08;83.19;101377.25;5069789;28;20028;-84
2022/09/17 08:38:33;;;;;;;5.80;1.53;;;;;;;13.43;80.96;101389.69;5072124;28;20063;-85
2022/09/17 08:41:37;;;;;;;5.57;1.40;;;;;;;13.69;81.48;101385.97;5022702;28;20518;-85
2022/09/17 08:44:02;;;;;;;6.90;1.37;;;;;;;13.97;79.10;101392.91;5053885;28;20037;-85
2022/09/17 08:46:32;;;;;;;6.77;1.40;;;;;;;14.11;77.22;101385.47;5037950;28;20031;-84
2022/09/17 08:48:57;;;;;;;4.87;1.27;;;;;;;14.19;75.91;101393.34;5065424;28;20043;-85
2022/09/17 08:51:43;;;;;;;8.50;1.40;;;;;;;14.46;77.58;101385.78;5064396;28;20380;-83
2022/09/17 08:54:46;;;;;;;7.33;1.70;;;;;;;14.51;76.63;101393.28;5064548;28;20044;-83
2022/09/17 08:57:40;;;;;;;6.13;1.60;;;;;;;14.62;76.25;101378.91;5055020;28;20039;-84
2022/09/17 09:00:15;;;;;;;10.50;1.33;;;;;;;14.61;74.76;101390.88;5040371;28;20037;-82
2022/09/17 09:03:19;;;;;;;9.57;1.60;;;;;;;14.73;74.05;101398.31;5073788;28;20031;-82
2022/09/17 09:05:47;;;;;;;8.13;1.90;;;;;;;14.40;73.26;101389.41;5075039;28;20359;-82
2022/09/17 09:08:21;;;;;;;8.43;1.63;;;;;;;14.18;71.28;101381.63;5075253;28;20074;-82
2022/09/17 09:10:52;;;;;;;6.50;1.40;;;;;;;14.33;73.71;101394.06;5056756;28;20035;-83
2022/09/17 09:13:21;;;;;;;5.13;1.23;;;;;;;14.18;72.39;101397.13;5074396;28;20360;-84
2022/09/17 09:15:54;;;;;;;7.13;1.50;;;;;;;13.88;71.70;101386.88;5045799;28;20477;-84
2022/09/17 09:18:23;;;;;;;6.93;1.43;;;;;;;13.85;72.80;101396.31;5041630;28;20028;-84
2022/09/17 09:20:56;;;;;;;7.40;1.50;;;;;;;13.98;74.17;101397.28;5053605;28;20468;-82
2022/09/17 09:24:00;;;;;;;6.70;1.40;;;;;;;14.26;75.10;101401.47;5045394;28;20029;-84
2022/09/17 09:26:46;;;;;;;7.67;1.30;;;;;;;14.51;76.35;101401.47;5043059;28;20033;-84
2022/09/17 09:29:38;;;;;;;6.20;1.30;;;;;;;14.41;71.70;101403.88;5050500;28;20509;-83
2022/09/17 09:32:40;;;;;;;3.37;0.93;;;;;;;14.61;70.23;101411.88;5041739;28;20041;-84
2022/09/17 09:35:16;;;;;;;3.63;0.90;;;;;;;14.56;68.81;101409.78;5033814;28;20029;-84
2022/09/17 09:37:49;;;;;;;2.60;0.63;;;;;;;14.40;68.41;101408.50;5050332;28;20366;-84
2022/09/17 09:40:32;;;;;;;3.13;0.70;;;;;;;14.21;69.94;101423.97;5053197;28;20086;-83
2022/09/17 09:43:02;;;;;;;4.55;1.00;;;;;;;14.02;72.64;101421.16;5039657;28;20029;-84
2022/09/17 09:45:48;;;;;;;5.17;1.00;;;;;;;14.00;72.58;101420.53;5040579;28;20025;-82
2022/09/17 09:48:33;;;;;;;3.33;0.93;;;;;;;13.87;70.63;101423.38;5047446;28;20025;-83
2022/09/17 09:51:24;;;;;;;5.13;0.93;;;;;;;13.79;70.86;101416.28;5038072;28;20075;-86
2022/09/17 09:54:04;;;;;;;5.97;0.90;;;;;;;14.11;68.66;101415.44;5036754;28;20484;-83
2022/09/17 09:56:47;;;;;;;3.70;0.73;;;;;;;14.32;70.20;101415.06;5048826;28;20031;-85
2022/09/17 09:59:13;;;;;;;5.43;1.00;;;;;;;14.50;70.37;101413.44;5040215;28;20361;-83
2022/09/17 10:01:43;;;;;;;5.40;1.30;;;;;;;14.45;68.12;101396.91;5039884;28;20041;-84
2022/09/17 10:04:16;;;;;;;6.17;1.00;;;;;;;14.70;69.76;101410.53;5050612;28;20114;-84
2022/09/17 10:06:42;;;;;;;5.23;1.10;;;;;;;14.71;68.79;101411.38;5049793;28;20017;-83
2022/09/17 10:09:10;;;;;;;6.00;1.23;;;;;;;14.69;69.09;101419.78;5037104;28;20112;-87
2022/09/17 10:11:36;;;;;;;4.43;0.93;;;;;;;14.90;70.20;101413.03;5057297;28;20551;-85
2022/09/17 10:14:20;;;;;;;5.83;1.30;;;;;;;14.89;69.17;101414.13;5033149;28;20457;-85
2022/09/17 10:16:45;;;;;;;7.93;1.27;;;;;;;14.98;68.65;101410.00;5063814;28;20054;-84
2022/09/17 10:19:18;;;;;;;4.70;0.97;;;;;;;14.80;66.93;101412.75;5057269;28;20040;-85
2022/09/17 10:21:44;;;;;;;6.07;1.37;;;;;;;14.50;67.17;101394.34;5075266;28;20079;-84
2022/09/17 10:24:33;;;;;;;5.23;0.93;;;;;;;14.47;69.62;101401.06;5053484;28;20028;-85
2022/09/17 10:27:05;;;;;;;4.83;1.13;;;;;;;14.39;70.36;101397.78;5035666;28;20112;-83
2022/09/17 10:29:32;;;;;;;5.47;1.20;;;;;;;14.24;72.76;101398.97;5056832;28;20426;-85
2022/09/17 10:31:57;;;;;;;4.70;1.00;;;;;;;14.23;72.59;101397.31;5073659;28;20028;-85
2022/09/17 10:34:30;;;;;;;5.03;0.90;;;;;;;14.35;71.33;101402.88;5071436;28;20034;-84
2022/09/17 10:36:56;;;;;;;6.33;1.50;;;;;;;14.24;71.64;101398.13;5070927;28;20075;-84
2022/09/17 10:39:33;;;;;;;6.40;1.30;;;;;;;14.33;73.88;101400.38;5067286;28;20052;-85
2022/09/17 10:42:04;;;;;;;4.23;1.03;;;;;;;14.28;70.36;101397.47;5072667;28;20119;-84
2022/09/17 10:44:32;;;;;;;5.03;1.20;;;;;;;14.46;70.12;101396.69;5072170;28;20464;-83
2022/09/17 10:47:12;;;;;;;7.80;1.40;;;;;;;14.38;71.49;101399.69;5070653;28;20016;-84
2022/09/17 10:49:42;;;;;;;5.97;1.33;;;;;;;14.49;71.22;101392.66;5048657;28;20468;-86
2022/09/17 10:52:34;;;;;;;5.40;1.00;;;;;;;14.94;73.03;101389.69;5055363;28;20087;-86
2022/09/17 10:55:17;;;;;;;5.30;1.20;;;;;;;15.12;73.77;101399.78;5053773;28;20033;-87
2022/09/17 10:58:08;;;;;;;7.03;1.20;;;;;;;15.08;68.30;101392.28;5052180;28;20104;-87
2022/09/17 11:00:46;;;;;;;5.10;1.07;;;;;;;15.23;67.87;101387.28;5055482;28;20107;-86
2022/09/17 11:03:36;;;;;;;4.50;1.17;;;;;;;15.27;65.15;101399.41;5056440;28;20488;-87
2022/09/17 11:06:23;;;;;;;4.63;1.20;;;;;;;15.46;66.68;101399.34;5057685;28;20361;-86
2022/09/17 11:09:06;;;;;;;3.87;1.10;;;;;;;15.36;67.43;101388.97;5066342;28;20108;-85
2022/09/17 11:11:34;;;;;;;4.87;0.97;;;;;;;15.26;67.07;101381.34;5072944;28;20066;-86
2022/09/17 11:14:40;;;;;;;6.93;1.43;;;;;;;15.35;67.99;101390.88;5057632;28;20090;-89
2022/09/17 11:17:36;;;;;;;5.30;0.93;;;;;;;15.26;68.54;101378.63;5056048;28;20068;-86
2022/09/17 11:20:08;;;;;;;5.97;1.10;;;;;;;15.25;67.23;101374.22;5067291;28;20024;-86
2022/09/17 11:22:51;;;;;;;4.50;1.13;;;;;;;15.33;66.83;101375.78;5070638;28;20160;-87
2022/09/17 11:25:36;;;;;;;6.33;1.13;;;;;;;15.27;65.75;101380.28;5076329;28;20039;-86
2022/09/17 11:28:17;;;;;;;5.27;1.00;;;;;;;15.13;65.12;101379.59;5076293;28;20028;-88
2022/09/17 11:31:01;;;;;;;4.93;1.00;;;;;;;15.11;66.43;101373.56;5076497;28;20111;-86
2022/09/17 11:33:51;;;;;;;6.47;1.15;;;;;;;15.05;65.32;101381.81;5075887;28;20035;-86
2022/09/17 11:36:24;;;;;;;5.50;1.20;;;;;;;14.94;65.95;101381.50;5052338;28;20489;-86
2022/09/17 11:38:51;;;;;;;5.47;1.10;;;;;;;15.05;69.06;101374.47;5062434;28;20124;-87